createdAt,value
2022-10-15T00:00:47.010Z,13.92
2022-10-15T00:03:14.493Z,13.92
2022-10-15T00:05:42.015Z,13.92
2022-10-15T00:08:09.887Z,13.92
2022-10-15T00:10:36.702Z,13.91
2022-10-15T00:13:04.511Z,13.93
2022-10-15T00:15:31.414Z,13.94
2022-10-15T00:17:58.546Z,13.92
2022-10-15T00:20:25.202Z,13.95
2022-10-15T00:22:51.758Z,13.96
2022-10-15T00:25:18.310Z,13.97
2022-10-15T00:27:44.893Z,13.94
2022-10-15T00:30:12.071Z,13.96
2022-10-15T00:32:38.644Z,13.94
2022-10-15T00:35:06.951Z,13.94
2022-10-15T00:37:33.535Z,13.91
2022-10-15T00:40:00.465Z,13.90
2022-10-15T00:42:27.076Z,13.91
2022-10-15T00:44:57.780Z,13.92
2022-10-15T00:47:39.001Z,13.90
2022-10-15T00:50:12.637Z,13.88
2022-10-15T00:53:03.583Z,13.94
2022-10-15T00:55:34.492Z,13.93
2022-10-15T00:58:07.628Z,13.93
2022-10-15T01:00:34.662Z,13.91
2022-10-15T01:03:01.413Z,13.92
2022-10-15T01:05:29.015Z,13.89
2022-10-15T01:07:55.541Z,13.88
2022-10-15T01:10:25.116Z,13.89
2022-10-15T01:13:20.141Z,13.89
2022-10-15T01:16:02.394Z,13.87
2022-10-15T01:18:43.126Z,13.87
2022-10-15T01:21:25.430Z,13.89
2022-10-15T01:24:23.405Z,13.88
2022-10-15T01:27:11.903Z,13.87
2022-10-15T01:29:50.394Z,13.88
2022-10-15T01:32:28.603Z,13.87
2022-10-15T01:35:20.057Z,13.91
2022-10-15T01:37:57.205Z,13.92
2022-10-15T01:40:31.350Z,13.90
2022-10-15T01:43:00.114Z,13.88
2022-10-15T01:45:42.307Z,13.82
2022-10-15T01:48:34.757Z,13.91
2022-10-15T01:51:05.359Z,13.92
2022-10-15T01:53:34.988Z,13.91
2022-10-15T01:56:06.316Z,13.92
2022-10-15T01:58:35.601Z,13.91
2022-10-15T02:01:06.484Z,13.93
2022-10-15T02:03:52.847Z,13.92
2022-10-15T02:06:21.977Z,13.95
2022-10-15T02:09:03.899Z,13.94
2022-10-15T02:11:35.549Z,13.93
2022-10-15T02:14:31.419Z,13.93
2022-10-15T02:17:08.375Z,13.90
2022-10-15T02:19:51.731Z,13.91
2022-10-15T02:22:24.372Z,13.93
2022-10-15T02:24:58.537Z,13.94
2022-10-15T02:27:27.173Z,13.92
2022-10-15T02:29:57.032Z,13.93
2022-10-15T02:32:25.728Z,13.92
2022-10-15T02:34:53.637Z,13.90
2022-10-15T02:37:22.439Z,13.91
2022-10-15T02:39:49.046Z,13.93
2022-10-15T02:42:18.042Z,13.92
2022-10-15T02:44:44.598Z,13.87
2022-10-15T02:47:12.011Z,13.92
2022-10-15T02:49:39.620Z,13.93
2022-10-15T02:52:07.052Z,13.92
2022-10-15T02:54:33.697Z,13.93
2022-10-15T02:57:00.723Z,13.89
2022-10-15T02:59:27.403Z,13.91
2022-10-15T03:01:55.105Z,13.92
2022-10-15T03:04:22.030Z,13.90
2022-10-15T03:06:48.653Z,13.93
2022-10-15T03:09:15.233Z,13.93
2022-10-15T03:11:41.800Z,13.95
2022-10-15T03:14:09.282Z,13.93
2022-10-15T03:16:35.848Z,13.96
2022-10-15T03:19:02.473Z,13.96
2022-10-15T03:21:31.126Z,13.92
2022-10-15T03:24:04.553Z,13.94
2022-10-15T03:26:31.677Z,13.93
2022-10-15T03:28:58.456Z,13.90
2022-10-15T03:31:34.378Z,13.90
2022-10-15T03:34:03.243Z,13.91
2022-10-15T03:36:30.499Z,13.92
2022-10-15T03:38:57.081Z,13.93
2022-10-15T03:41:23.719Z,13.92
2022-10-15T03:43:51.482Z,13.93
2022-10-15T03:46:18.063Z,13.92
2022-10-15T03:48:50.841Z,13.93
2022-10-15T03:51:22.781Z,13.93
2022-10-15T03:53:56.146Z,13.92
2022-10-15T03:56:22.691Z,13.90
2022-10-15T03:58:49.802Z,13.89
2022-10-15T04:01:18.313Z,13.90
2022-10-15T04:03:45.505Z,13.89
2022-10-15T04:06:15.156Z,13.89
2022-10-15T04:08:42.020Z,13.89
2022-10-15T04:11:21.335Z,13.88
2022-10-15T04:13:56.590Z,13.89
2022-10-15T04:16:23.299Z,13.90
2022-10-15T04:18:50.106Z,13.91
2022-10-15T04:21:16.692Z,13.91
2022-10-15T04:23:48.478Z,13.90
2022-10-15T04:26:26.849Z,13.85
2022-10-15T04:28:53.675Z,13.82
2022-10-15T04:31:22.213Z,13.80
2022-10-15T04:33:49.746Z,13.80
2022-10-15T04:39:00.534Z,13.74
2022-10-15T04:41:36.797Z,13.72
2022-10-15T04:44:13.258Z,13.69
2022-10-15T04:46:42.636Z,13.69
2022-10-15T04:49:24.584Z,13.69
2022-10-15T04:51:51.600Z,13.67
2022-10-15T04:54:22.315Z,13.65
2022-10-15T04:57:03.673Z,13.66
2022-10-15T04:59:30.710Z,13.61
2022-10-15T05:02:35.509Z,13.61
2022-10-15T05:05:14.356Z,13.62
2022-10-15T05:07:49.833Z,13.58
2022-10-15T05:10:16.541Z,13.58
2022-10-15T05:12:45.928Z,13.59
2022-10-15T05:15:13.095Z,13.62
2022-10-15T05:17:40.061Z,13.64
2022-10-15T05:20:08.277Z,13.62
2022-10-15T05:22:35.400Z,13.61
2022-10-15T05:25:02.994Z,13.61
2022-10-15T05:27:35.108Z,13.62
2022-10-15T05:30:04.714Z,13.53
2022-10-15T05:32:40.138Z,13.57
2022-10-15T05:35:10.638Z,13.56
2022-10-15T05:37:54.817Z,13.58
2022-10-15T05:40:22.513Z,13.56
2022-10-15T05:43:18.044Z,13.56
2022-10-15T05:45:44.644Z,13.55
2022-10-15T05:48:11.249Z,13.56
2022-10-15T05:50:37.879Z,13.57
2022-10-15T05:53:08.327Z,13.55
2022-10-15T05:55:41.575Z,13.57
2022-10-15T05:58:08.146Z,13.59
2022-10-15T06:00:35.705Z,13.56
2022-10-15T06:03:02.324Z,13.56
2022-10-15T06:05:28.961Z,13.58
2022-10-15T06:07:56.676Z,13.58
2022-10-15T06:10:26.189Z,13.57
2022-10-15T06:12:52.819Z,13.59
2022-10-15T06:15:19.867Z,13.56
2022-10-15T06:17:46.415Z,13.53
2022-10-15T06:20:13.882Z,13.49
2022-10-15T06:22:40.518Z,13.47
2022-10-15T06:25:07.817Z,13.47
2022-10-15T06:27:34.411Z,13.45
2022-10-15T06:30:01.058Z,13.48
2022-10-15T06:32:27.670Z,13.50
2022-10-15T06:34:54.250Z,13.54
2022-10-15T06:37:21.128Z,13.55
2022-10-15T06:39:47.839Z,13.58
2022-10-15T06:42:14.390Z,13.59
2022-10-15T06:44:41.240Z,13.63
2022-10-15T06:47:08.701Z,13.62
2022-10-15T06:49:35.352Z,13.67
2022-10-15T06:52:03.494Z,13.67
2022-10-15T06:54:30.705Z,13.68
2022-10-15T06:56:57.342Z,13.69
2022-10-15T06:59:23.898Z,13.70
2022-10-15T07:01:50.446Z,13.70
2022-10-15T07:04:16.984Z,13.72
2022-10-15T07:06:43.898Z,13.72
2022-10-15T07:09:10.523Z,13.73
2022-10-15T07:11:37.155Z,13.77
2022-10-15T07:14:03.739Z,13.81
2022-10-15T07:16:30.558Z,13.86
2022-10-15T07:18:57.097Z,13.91
2022-10-15T07:21:23.771Z,13.94
2022-10-15T07:23:50.311Z,14.01
2022-10-15T07:26:16.883Z,14.08
2022-10-15T07:28:43.550Z,14.27
2022-10-15T07:31:10.307Z,14.33
2022-10-15T07:33:37.353Z,14.33
2022-10-15T07:36:09.939Z,14.47
2022-10-15T07:38:37.240Z,14.59
2022-10-15T07:41:05.297Z,14.54
2022-10-15T07:43:37.758Z,14.59
2022-10-15T07:46:04.644Z,14.55
2022-10-15T07:48:31.654Z,14.60
2022-10-15T07:51:00.778Z,14.62
2022-10-15T07:53:27.900Z,14.63
2022-10-15T07:56:03.762Z,14.69
2022-10-15T07:58:34.740Z,14.73
2022-10-15T08:01:06.258Z,14.82
2022-10-15T08:03:34.161Z,14.83
2022-10-15T08:06:02.259Z,14.95
2022-10-15T08:08:29.731Z,14.96
2022-10-15T08:10:56.798Z,14.92
2022-10-15T08:13:24.267Z,14.96
2022-10-15T08:15:57.654Z,15.02
2022-10-15T08:18:27.108Z,15.05
2022-10-15T08:20:53.688Z,15.04
2022-10-15T08:23:20.266Z,15.09
2022-10-15T08:25:46.862Z,15.18
2022-10-15T08:28:14.177Z,15.11
2022-10-15T08:30:40.796Z,15.20
2022-10-15T08:33:12.313Z,15.19
2022-10-15T08:35:43.648Z,15.13
2022-10-15T08:38:14.715Z,15.08
2022-10-15T08:40:55.287Z,15.12
2022-10-15T08:43:26.490Z,15.07
2022-10-15T08:45:57.792Z,15.09
2022-10-15T08:48:55.164Z,15.02
2022-10-15T08:51:24.347Z,15.12
2022-10-15T08:53:57.610Z,15.17
2022-10-15T08:56:30.143Z,15.32
2022-10-15T08:59:27.728Z,15.42
2022-10-15T09:02:17.615Z,15.62
2022-10-15T09:04:55.678Z,15.85
2022-10-15T09:08:04.194Z,15.96
2022-10-15T09:10:43.642Z,16.10
2022-10-15T09:13:33.568Z,16.11
2022-10-15T09:16:05.336Z,16.22
2022-10-15T09:18:34.188Z,16.28
2022-10-15T09:21:04.362Z,16.14
2022-10-15T09:23:33.897Z,16.19
2022-10-15T09:26:08.790Z,16.21
2022-10-15T09:28:56.936Z,16.09
2022-10-15T09:31:32.419Z,16.16
2022-10-15T09:34:27.086Z,16.46
2022-10-15T09:36:58.577Z,16.38
2022-10-15T09:39:58.611Z,16.41
2022-10-15T09:42:38.033Z,16.49
2022-10-15T09:45:13.459Z,16.56
2022-10-15T09:47:41.858Z,16.57
2022-10-15T09:50:11.508Z,16.50
2022-10-15T09:52:56.320Z,16.58
2022-10-15T09:55:42.764Z,16.46
2022-10-15T09:58:18.560Z,16.43
2022-10-15T10:00:51.112Z,16.41
2022-10-15T10:03:17.834Z,16.43
2022-10-15T10:05:45.937Z,16.47
2022-10-15T10:08:24.334Z,16.32
2022-10-15T10:10:59.109Z,16.31
2022-10-15T10:13:30.176Z,16.33
2022-10-15T10:16:02.948Z,16.43
2022-10-15T10:18:31.454Z,16.40
2022-10-15T10:21:01.703Z,16.32
2022-10-15T10:23:38.093Z,16.65
2022-10-15T10:26:10.461Z,16.56
2022-10-15T10:28:44.131Z,16.53
2022-10-15T10:31:12.012Z,16.67
2022-10-15T10:33:48.151Z,16.70
2022-10-15T10:36:28.477Z,16.59
2022-10-15T10:39:17.763Z,16.76
2022-10-15T10:41:56.725Z,17.02
2022-10-15T10:44:28.115Z,17.08
2022-10-15T10:47:19.800Z,16.81
2022-10-15T10:49:51.938Z,16.86
2022-10-15T10:52:38.975Z,16.98
2022-10-15T10:55:07.686Z,17.16
2022-10-15T10:57:45.550Z,17.27
2022-10-15T11:00:17.269Z,17.39
2022-10-15T11:02:49.090Z,17.74
2022-10-15T11:05:19.607Z,17.64
2022-10-15T11:07:57.003Z,17.73
2022-10-15T11:10:31.640Z,17.64
2022-10-15T11:13:30.380Z,17.65
2022-10-15T11:16:25.788Z,17.75
2022-10-15T11:19:13.651Z,18.02
2022-10-15T11:22:01.697Z,18.16
2022-10-15T11:24:48.653Z,18.20
2022-10-15T11:27:21.651Z,18.18
2022-10-15T11:29:58.688Z,18.17
2022-10-15T11:33:05.420Z,18.04
2022-10-15T11:35:52.384Z,17.90
2022-10-15T11:38:38.220Z,18.02
2022-10-15T11:41:23.880Z,17.76
2022-10-15T11:43:50.375Z,17.69
2022-10-15T11:46:44.078Z,17.77
2022-10-15T11:49:42.559Z,17.86
2022-10-15T11:52:35.743Z,17.69
2022-10-15T11:55:29.045Z,17.76
2022-10-15T11:58:01.572Z,17.84
2022-10-15T12:00:40.695Z,17.82
2022-10-15T12:03:15.453Z,17.83
2022-10-15T12:05:50.071Z,17.82
2022-10-15T12:08:17.778Z,17.86
2022-10-15T12:11:19.745Z,17.86
2022-10-15T12:14:02.587Z,17.88
2022-10-15T12:16:56.146Z,17.76
2022-10-15T12:19:32.673Z,17.71
2022-10-15T12:22:11.319Z,17.71
2022-10-15T12:24:47.530Z,17.73
2022-10-15T12:27:20.041Z,17.70
2022-10-15T12:30:12.894Z,17.72
2022-10-15T12:32:48.777Z,17.76
2022-10-15T12:35:15.394Z,17.73
2022-10-15T12:37:44.784Z,17.70
2022-10-15T12:40:28.875Z,17.76
2022-10-15T12:43:14.524Z,17.72
2022-10-15T12:45:54.910Z,17.60
2022-10-15T12:48:36.171Z,17.71
2022-10-15T12:51:24.237Z,17.74
2022-10-15T12:53:52.712Z,17.87
2022-10-15T12:56:25.147Z,17.78
2022-10-15T12:58:53.776Z,17.77
2022-10-15T13:01:20.593Z,17.90
2022-10-15T13:03:53.100Z,17.88
2022-10-15T13:06:25.351Z,17.96
2022-10-15T13:08:54.338Z,17.96
2022-10-15T13:11:25.424Z,18.14
2022-10-15T13:13:56.555Z,17.96
2022-10-15T13:16:23.308Z,17.89
2022-10-15T13:18:52.846Z,18.11
2022-10-15T13:21:19.628Z,18.07
2022-10-15T13:23:51.122Z,17.94
2022-10-15T13:26:25.579Z,17.90
2022-10-15T13:28:54.972Z,17.88
2022-10-15T13:31:30.555Z,17.80
2022-10-15T13:34:14.067Z,17.82
2022-10-15T13:36:40.846Z,17.70
2022-10-15T13:39:22.826Z,17.76
2022-10-15T13:41:49.916Z,17.75
2022-10-15T13:44:24.025Z,17.76
2022-10-15T13:46:51.346Z,17.89
2022-10-15T13:49:20.439Z,17.83
2022-10-15T13:51:50.713Z,17.91
2022-10-15T13:54:23.802Z,17.91
2022-10-15T13:56:57.688Z,17.86
2022-10-15T13:59:24.796Z,17.95
2022-10-15T14:02:00.976Z,17.89
2022-10-15T14:04:32.663Z,17.88
2022-10-15T14:07:04.294Z,17.94
2022-10-15T14:09:37.045Z,18.03
2022-10-15T14:12:08.405Z,18.02
2022-10-15T14:14:45.135Z,17.97
2022-10-15T14:17:21.025Z,17.90
2022-10-15T14:20:02.118Z,17.96
2022-10-15T14:22:42.501Z,17.88
2022-10-15T14:27:57.379Z,17.88
2022-10-15T14:30:36.702Z,17.86
2022-10-15T14:33:03.859Z,17.90
2022-10-15T14:35:35.846Z,18.02
2022-10-15T14:38:09.591Z,17.86
2022-10-15T14:40:36.461Z,17.81
2022-10-15T14:43:16.058Z,17.75
2022-10-15T14:45:56.885Z,17.87
2022-10-15T14:48:34.413Z,17.94
2022-10-15T14:51:06.350Z,17.88
2022-10-15T14:53:39.173Z,17.90
2022-10-15T14:56:16.366Z,17.81
2022-10-15T14:58:53.262Z,17.80
2022-10-15T15:01:21.057Z,17.90
2022-10-15T15:03:53.608Z,17.80
2022-10-15T15:06:20.450Z,17.78
2022-10-15T15:08:47.052Z,17.66
2022-10-15T15:11:20.581Z,17.59
2022-10-15T15:13:48.722Z,17.61
2022-10-15T15:16:17.567Z,17.68
2022-10-15T15:18:46.377Z,17.71
2022-10-15T15:21:17.211Z,17.70
2022-10-15T15:23:44.229Z,17.61
2022-10-15T15:26:10.786Z,17.66
2022-10-15T15:28:37.378Z,17.57
2022-10-15T15:31:07.673Z,17.51
2022-10-15T15:33:34.989Z,17.42
2022-10-15T15:36:09.633Z,17.45
2022-10-15T15:41:11.886Z,17.31
2022-10-15T15:43:38.751Z,17.32
2022-10-15T15:46:05.501Z,17.30
2022-10-15T15:48:32.058Z,17.35
2022-10-15T15:51:04.943Z,17.32
2022-10-15T15:53:31.983Z,17.30
2022-10-15T15:55:58.735Z,17.29
2022-10-15T15:58:25.298Z,17.20
2022-10-15T16:00:51.879Z,17.20
2022-10-15T16:03:18.497Z,17.08
2022-10-15T16:05:45.211Z,17.12
2022-10-15T16:08:13.135Z,17.11
2022-10-15T16:10:39.815Z,17.00
2022-10-15T16:13:06.379Z,16.99
2022-10-15T16:15:32.921Z,17.04
2022-10-15T16:17:59.497Z,17.01
2022-10-15T16:20:26.089Z,16.99
2022-10-15T16:22:53.208Z,17.02
2022-10-15T16:25:20.376Z,16.99
2022-10-15T16:27:51.731Z,17.02
2022-10-15T16:30:19.329Z,17.01
2022-10-15T16:32:46.223Z,17.02
2022-10-15T16:35:12.787Z,16.97
2022-10-15T16:37:39.584Z,16.88
2022-10-15T16:40:06.895Z,16.83
2022-10-15T16:42:33.602Z,16.78
2022-10-15T16:45:00.288Z,16.80
2022-10-15T16:47:27.400Z,16.74
2022-10-15T16:49:55.528Z,16.75
2022-10-15T16:52:22.593Z,16.74
2022-10-15T16:54:49.390Z,16.68
2022-10-15T16:57:15.930Z,16.61
2022-10-15T16:59:42.553Z,16.51
2022-10-15T17:02:10.135Z,16.55
2022-10-15T17:04:36.769Z,16.58
2022-10-15T17:07:03.437Z,16.58
2022-10-15T17:09:31.089Z,16.49
2022-10-15T17:11:57.747Z,16.43
2022-10-15T17:14:24.302Z,16.43
2022-10-15T17:16:52.720Z,16.36
2022-10-15T17:19:21.920Z,16.28
2022-10-15T17:21:48.529Z,16.27
2022-10-15T17:24:16.947Z,16.30
2022-10-15T17:26:45.040Z,16.29
2022-10-15T17:29:16.508Z,16.22
2022-10-15T17:31:43.237Z,16.08
2022-10-15T17:34:11.407Z,16.03
2022-10-15T17:36:43.201Z,16.02
2022-10-15T17:39:11.438Z,15.98
2022-10-15T17:41:37.956Z,15.97
2022-10-15T17:44:04.641Z,15.96
2022-10-15T17:46:31.495Z,15.91
2022-10-15T17:48:58.717Z,16.01
2022-10-15T17:51:29.255Z,16.01
2022-10-15T17:53:59.280Z,15.94
2022-10-15T17:56:28.604Z,15.95
2022-10-15T17:58:57.299Z,16.01
2022-10-15T18:01:39.553Z,16.06
2022-10-15T18:04:12.926Z,16.04
2022-10-15T18:06:43.481Z,16.03
2022-10-15T18:09:13.628Z,16.01
2022-10-15T18:11:40.266Z,15.94
2022-10-15T18:14:06.875Z,15.89
2022-10-15T18:16:33.479Z,15.96
2022-10-15T18:19:00.144Z,15.93
2022-10-15T18:21:28.344Z,15.88
2022-10-15T18:23:56.754Z,15.76
2022-10-15T18:26:23.602Z,15.77
2022-10-15T18:28:52.061Z,15.73
2022-10-15T18:31:19.176Z,15.78
2022-10-15T18:33:48.741Z,15.74
2022-10-15T18:36:35.406Z,15.69
2022-10-15T18:39:02.036Z,15.74
2022-10-15T18:41:32.877Z,15.74
2022-10-15T18:44:04.847Z,15.69
2022-10-15T18:46:33.982Z,15.71
2022-10-15T18:49:01.490Z,15.75
2022-10-15T18:51:30.851Z,15.79
2022-10-15T18:53:59.317Z,15.77
2022-10-15T18:56:26.194Z,15.75
2022-10-15T18:58:52.742Z,15.74
2022-10-15T19:01:29.865Z,15.81
2022-10-15T19:04:02.329Z,15.74
2022-10-15T19:06:32.040Z,15.79
2022-10-15T19:08:59.989Z,15.77
2022-10-15T19:11:30.974Z,15.81
2022-10-15T19:13:59.142Z,15.84
2022-10-15T19:16:25.803Z,15.74
2022-10-15T19:18:52.681Z,15.73
2022-10-15T19:21:19.335Z,15.71
2022-10-15T19:23:45.882Z,15.72
2022-10-15T19:26:15.292Z,15.68
2022-10-15T19:28:42.046Z,15.76
2022-10-15T19:31:12.483Z,15.74
2022-10-15T19:33:39.597Z,15.75
2022-10-15T19:36:06.477Z,15.64
2022-10-15T19:38:33.799Z,15.73
2022-10-15T19:41:04.319Z,15.77
2022-10-15T19:43:30.975Z,15.82
2022-10-15T19:46:03.678Z,15.78
2022-10-15T19:48:31.604Z,15.84
2022-10-15T19:51:01.480Z,15.83
2022-10-15T19:53:28.156Z,15.86
2022-10-15T19:55:57.474Z,15.81
2022-10-15T19:58:25.010Z,15.80
2022-10-15T20:00:55.370Z,15.72
2022-10-15T20:03:23.426Z,15.75
2022-10-15T20:05:50.444Z,15.66
2022-10-15T20:08:18.664Z,15.67
2022-10-15T20:10:47.716Z,15.80
2022-10-15T20:13:15.609Z,15.82
2022-10-15T20:15:43.104Z,15.77
2022-10-15T20:18:10.404Z,15.75
2022-10-15T20:20:39.205Z,15.77
2022-10-15T20:23:06.254Z,15.79
2022-10-15T20:25:32.923Z,15.71
2022-10-15T20:27:59.615Z,15.65
2022-10-15T20:30:26.180Z,15.65
2022-10-15T20:32:52.784Z,15.65
2022-10-15T20:35:20.359Z,15.62
2022-10-15T20:37:47.417Z,15.58
2022-10-15T20:40:14.850Z,15.55
2022-10-15T20:42:41.513Z,15.59
2022-10-15T20:45:11.307Z,15.59
2022-10-15T20:47:42.193Z,15.59
2022-10-15T20:50:35.680Z,15.58
2022-10-15T20:53:02.869Z,15.56
2022-10-15T20:55:29.461Z,15.55
2022-10-15T20:57:56.117Z,15.55
2022-10-15T21:00:23.567Z,15.52
2022-10-15T21:02:50.097Z,15.53
2022-10-15T21:05:16.666Z,15.50
2022-10-15T21:07:43.226Z,15.48
2022-10-15T21:10:09.884Z,15.50
2022-10-15T21:12:36.475Z,15.49
2022-10-15T21:15:04.020Z,15.45
2022-10-15T21:17:30.602Z,15.35
2022-10-15T21:19:57.149Z,15.29
2022-10-15T21:22:23.784Z,15.32
2022-10-15T21:24:50.339Z,15.29
2022-10-15T21:27:17.068Z,15.24
2022-10-15T21:29:45.147Z,15.25
2022-10-15T21:32:11.717Z,15.20
2022-10-15T21:37:25.468Z,15.17
2022-10-15T21:39:52.179Z,15.17
2022-10-15T21:42:18.773Z,15.18
2022-10-15T21:44:45.487Z,15.15
2022-10-15T21:47:14.463Z,15.16
2022-10-15T21:49:42.099Z,15.12
2022-10-15T21:52:08.637Z,15.08
2022-10-15T21:54:35.260Z,15.02
2022-10-15T21:57:01.827Z,15.02
2022-10-15T21:59:28.382Z,15.07
2022-10-15T22:01:55.081Z,15.11
2022-10-15T22:04:21.670Z,15.05
2022-10-15T22:06:48.229Z,15.01
2022-10-15T22:09:14.896Z,14.96
2022-10-15T22:11:41.931Z,14.96
2022-10-15T22:14:11.710Z,14.95
2022-10-15T22:16:39.792Z,14.87
2022-10-15T22:19:08.874Z,14.96
2022-10-15T22:21:37.875Z,14.90
2022-10-15T22:24:12.112Z,14.89
2022-10-15T22:26:41.035Z,14.94
2022-10-15T22:29:10.978Z,14.93
2022-10-15T22:31:37.548Z,14.81
2022-10-15T22:34:04.081Z,14.85
2022-10-15T22:36:31.463Z,14.79
2022-10-15T22:39:05.245Z,14.82
2022-10-15T22:41:36.641Z,14.73
2022-10-15T22:44:03.823Z,14.77
2022-10-15T22:46:33.937Z,14.81
2022-10-15T22:49:00.707Z,14.77
2022-10-15T22:51:27.529Z,14.74
2022-10-15T22:53:55.706Z,14.70
2022-10-15T22:56:22.801Z,14.66
2022-10-15T22:58:49.691Z,14.64
2022-10-15T23:01:19.156Z,14.62
2022-10-15T23:03:49.293Z,14.55
2022-10-15T23:06:16.614Z,14.54
2022-10-15T23:08:43.582Z,14.54
2022-10-15T23:11:19.575Z,14.52
2022-10-15T23:13:47.430Z,14.40
2022-10-15T23:16:16.993Z,14.37
2022-10-15T23:18:44.827Z,14.35
2022-10-15T23:21:17.209Z,14.31
2022-10-15T23:23:45.526Z,14.32
2022-10-15T23:26:15.060Z,14.39
2022-10-15T23:28:42.903Z,14.35
2022-10-15T23:31:35.986Z,14.40
2022-10-15T23:34:03.959Z,14.33
2022-10-15T23:36:31.486Z,14.20
2022-10-15T23:39:03.956Z,14.20
2022-10-15T23:41:31.144Z,14.24
2022-10-15T23:43:58.068Z,14.21
2022-10-15T23:46:25.060Z,14.34
2022-10-15T23:48:51.952Z,14.30
2022-10-15T23:51:23.624Z,14.27
2022-10-15T23:53:50.839Z,14.26
2022-10-15T23:56:17.788Z,14.24
2022-10-15T23:58:48.112Z,14.23
